MST,Max TemperatureF,Mean TemperatureF,Min TemperatureF,Max Dew PointF,MeanDew PointF,Min DewpointF,Max Humidity, Mean Humidity, Min Humidity, Max Sea Level PressureIn, Mean Sea Level PressureIn, Min Sea Level PressureIn, Max VisibilityMiles, Mean VisibilityMiles, Min VisibilityMiles, Max Wind SpeedMPH, Mean Wind SpeedMPH, Max Gust SpeedMPH,PrecipitationIn, CloudCover, Events, WindDirDegrees
2012-11-1,68,50,31,40,34,29,85,57,29,30.03,29.92,29.83,10,10,9,9,2,9,0.00,0,,113
2012-11-2,63,48,33,37,30,27,75,50,25,30.17,29.99,29.81,10,10,10,22,10,32,0.00,0,,321
2012-11-3,61,44,26,32,27,23,92,60,27,30.25,30.17,30.10,10,10,10,12,5,15,0.00,0,,320
2012-11-4,66,47,28,37,30,24,85,53,20,30.27,30.16,30.09,10,10,10,29,11,35,T,2,,319
2012-11-5,65,52,39,37,34,33,79,55,31,30.23,30.12,30.00,10,10,10,16,6,20,0.00,3,,301
2012-11-6,65,49,33,37,31,27,82,56,30,30.27,30.17,30.11,10,10,10,16,6,22,0.00,0,,325
2012-11-7,78,52,25,34,24,17,92,51,10,30.09,29.93,29.78,10,10,10,28,6,33,0.00,0,,314
2012-11-8,57,45,32,32,29,22,89,62,34,30.05,29.90,29.79,10,10,10,17,8,21,0.00,0,,68
2012-11-9,51,42,32,35,33,31,96,75,54,29.81,29.69,29.57,10,7,2,18,13,23,0.00,4,,109
2012-11-10,38,26,13,36,27,8,100,86,71,30.01,29.68,29.52,10,4,0,22,11,28,0.26,7,Fog-Rain-Snow,340
2012-11-11,24,13,2,14,6,-1,88,75,62,30.38,30.21,30.00,10,10,10,16,6,20,0.00,1,,304
2012-11-12,44,24,4,25,14,2,88,65,41,30.46,30.38,30.31,10,10,10,13,4,16,0.00,0,,319
2012-11-13,50,36,22,28,23,16,81,59,36,30.32,30.27,30.23,10,10,10,23,7,30,0.00,3,,315
2012-11-14,53,38,23,31,27,20,88,69,50,30.28,30.21,30.12,10,10,10,23,5,32,T,3,Rain,15
2012-11-15,51,40,29,30,26,24,85,60,35,30.44,30.36,30.21,10,10,10,12,6,14,0.00,2,,121
2012-11-16,64,46,28,30,28,23,78,53,27,30.29,30.13,30.02,10,10,10,16,10,21,0.00,0,,124
2012-11-17,63,46,29,34,31,26,85,58,30,30.12,30.05,29.99,10,10,10,20,6,25,0.00,2,,333
2012-11-18,67,47,27,33,30,25,85,54,22,30.01,29.95,29.83,10,10,10,25,7,32,0.00,1,,288
2012-11-19,63,47,30,35,30,26,85,56,27,30.21,30.14,30.01,10,10,10,18,5,23,0.00,0,,317
2012-11-20,71,48,25,30,25,21,85,51,17,30.20,30.10,29.97,10,10,10,22,5,29,0.00,0,,310
2012-11-21,76,53,30,28,21,10,78,44,9,29.97,29.86,29.75,10,10,2,24,6,29,0.00,0,,314
2012-11-22,53,40,27,32,18,7,70,43,16,30.53,30.17,29.77,10,10,10,36,15,44,0.00,1,,309
2012-11-23,50,33,16,17,15,12,80,53,26,30.61,30.42,30.19,10,10,10,10,6,14,0.00,0,,336
2012-11-24,68,45,22,24,19,15,81,48,14,30.16,29.99,29.86,10,10,10,24,6,31,0.00,0,,337
2012-11-25,50,42,33,30,27,23,82,62,42,30.11,29.95,29.82,10,10,10,24,11,32,0.00,6,,84
2012-11-26,37,30,23,27,24,20,85,72,59,30.46,30.31,30.10,10,8,2,33,7,159,0.03,6,Snow,90
2012-11-27,54,35,15,26,18,12,92,59,26,30.34,30.23,30.10,10,10,7,13,4,76,0.00,0,,12
2012-11-28,54,36,18,24,19,14,84,56,28,30.27,30.15,30.01,10,10,10,29,4,178,0.00,0,,70
2012-11-29,66,45,23,26,22,17,88,54,19,30.07,29.99,29.89,10,10,10,31,6,44,0.00,0,,333
2012-11-30,67,47,27,27,23,20,78,48,18,30.04,29.90,29.78,10,10,10,17,6,21,0.00,0,,122